Time;durP1;ratioP1;P1;durP2;ratioP2;P2;SDS_P1;SDS_P2;PMS_P1;PMS_P2;Temp;Humidity;BMP_temperature;BMP_pressure;BME280_temperature;BME280_humidity;BME280_pressure;Samples;Min_cycle;Max_cycle;Signal;HPM_P1;HPM_P2
2023/01/22 00:01:00;;;;;;;;;13.75;13.75;;;;;;;;6488363;39;8921;-59
2023/01/22 00:07:59;;;;;;;;;10.00;10.00;;;;;;;;6487157;39;9037;-61
2023/01/22 00:15:44;;;;;;;;;10.25;9.75;;;;;;;;6487625;39;8881;-59
2023/01/22 00:22:43;;;;;;;;;9.25;8.00;;;;;;;;6486644;31;8958;-58
2023/01/22 00:29:27;;;;;;;;;14.50;14.00;;;;;;;;6486964;39;8893;-61
2023/01/22 00:36:07;;;;;;;;;14.00;11.75;;;;;;;;6486634;39;8949;-59
2023/01/22 00:43:07;;;;;;;;;8.67;8.67;;;;;;;;6487131;46;8912;-59
2023/01/22 00:50:25;;;;;;;;;13.00;13.00;;;;;;;;6487678;31;9702;-60
2023/01/22 00:57:32;;;;;;;;;13.50;11.50;;;;;;;;6486454;46;8956;-60
2023/01/22 01:04:41;;;;;;;;;18.75;18.25;;;;;;;;6485785;31;9115;-60
2023/01/22 01:11:44;;;;;;;;;10.75;9.75;;;;;;;;6487619;31;8866;-59
2023/01/22 01:18:17;;;;;;;;;13.33;13.33;;;;;;;;6486226;39;8892;-60
2023/01/22 01:38:55;;;;;;;;;16.00;14.25;;;;;;;;6485625;39;8891;-60
2023/01/22 01:45:24;;;;;;;;;17.25;17.25;;;;;;;;6487206;31;8994;-59
2023/01/22 01:59:13;;;;;;;;;15.50;13.00;;;;;;;;6482503;39;8944;-60
2023/01/22 02:05:38;;;;;;;;;13.75;13.75;;;;;;;;6482447;39;9010;-59
2023/01/22 02:12:08;;;;;;;;;15.00;13.25;;;;;;;;6482851;31;8913;-60
2023/01/22 02:18:38;;;;;;;;;14.25;13.25;;;;;;;;6482037;39;8930;-59
2023/01/22 02:25:47;;;;;;;;;14.00;13.00;;;;;;;;6483029;46;8964;-60
2023/01/22 02:32:31;;;;;;;;;13.00;13.00;;;;;;;;6481992;39;9033;-61
2023/01/22 02:39:46;;;;;;;;;10.50;9.50;;;;;;;;6481953;39;8932;-59
2023/01/22 02:47:12;;;;;;;;;14.75;14.00;;;;;;;;6485039;39;9575;-62
2023/01/22 02:54:11;;;;;;;;;14.00;14.00;;;;;;;;6486293;39;8852;-59
2023/01/22 03:01:48;;;;;;;;;14.00;13.00;;;;;;;;6484843;31;8996;-60
2023/01/22 03:08:32;;;;;;;;;17.75;14.00;;;;;;;;6486611;31;9011;-60
2023/01/22 03:22:48;;;;;;;;;18.75;17.75;;;;;;;;6484794;39;8994;-60
2023/01/22 03:29:19;;;;;;;;;14.75;13.25;;;;;;;;6485461;31;8901;-60
2023/01/22 03:36:36;;;;;;;;;14.75;13.00;;;;;;;;6484844;39;9670;-59
2023/01/22 03:43:23;;;;;;;;;14.25;13.00;;;;;;;;6485890;39;8952;-60
2023/01/22 03:49:56;;;;;;;;;13.75;12.00;;;;;;;;6485714;39;9568;-59
2023/01/22 03:56:48;;;;;;;;;15.75;14.00;;;;;;;;6487116;46;8948;-60
2023/01/22 04:04:05;;;;;;;;;16.25;14.50;;;;;;;;6487537;46;8938;-60
2023/01/22 04:10:29;;;;;;;;;13.75;13.00;;;;;;;;6489366;31;8984;-59
2023/01/22 04:17:27;;;;;;;;;13.75;13.00;;;;;;;;6487542;39;8892;-58
2023/01/22 04:24:17;;;;;;;;;14.25;13.00;;;;;;;;6487187;46;8960;-60
2023/01/22 04:30:52;;;;;;;;;14.25;13.75;;;;;;;;6486826;31;9008;-60
2023/01/22 04:38:00;;;;;;;;;14.75;13.75;;;;;;;;6483312;46;8931;-59
2023/01/22 04:44:49;;;;;;;;;15.00;14.50;;;;;;;;6484206;31;8997;-61
2023/01/22 04:51:57;;;;;;;;;19.50;14.75;;;;;;;;6484972;39;9010;-61
2023/01/22 04:58:54;;;;;;;;;20.00;15.25;;;;;;;;6483174;46;8999;-59
2023/01/22 05:13:10;;;;;;;;;20.00;17.50;;;;;;;;6483530;39;8926;-60
2023/01/22 05:19:31;;;;;;;;;19.25;17.00;;;;;;;;6483837;31;8932;-60
2023/01/22 05:25:48;;;;;;;;;16.00;13.33;;;;;;;;6486777;39;8952;-59
